Terminal Aerodrome Forecast
Issued by NWS

Home | Current Version | Previous Version | Text Only | Print | Product List | Glossary Off
Versions: 1 2 3 4 5 6 7 8 9 10 11 12 13 14 15 16 17 18 19 20 21 22 23 24

000
FTUS43 KABR 252300 AAA
TAFATY
TAF AMD
KATY 252308Z 2523/2618 14007KT P6SM BKN050
      TEMPO 2600/2603 3SM -SN OVC025
     FM260300 09008KT 1SM -SN BR OVC015
     FM260600 04012KT 3/4SM -SN BR OVC010
     FM261000 01019G27KT 3/4SM -SN BLSN OVC010
     FM261600 36019G27KT 2SM -SN BLSN OVC010=

USA.gov is the U.S. government's official web portal to all federal, state and local government web resources and services.